Terminal Aerodrome Forecast
Issued by NWS

Home | Current Version | Previous Version | Text Only | Print | Product List | Glossary On
Versions: 1 2 3 4 5 6 7 8 9 10 11 12 13 14 15 16 17 18
000
FTAK31 PAJN 190524
TAFAGY
TAF
PAGY 190524Z 1906/2006 20018G25KT P6SM VCSH OVC060
     FM191000 20016G23KT 6SM -SHRA FEW004 BKN035 OVC050
     FM192100 21014KT 6SM -SHRA BKN015 OVC025
      AMD LTD TO CLD VIS AND WIND=

USA.gov is the U.S. government's official web portal to all federal, state and local government web resources and services.